Time;durP1;ratioP1;P1;durP2;ratioP2;P2;SDS_P1;SDS_P2;PMS_P1;PMS_P2;Temp;Humidity;BMP_temperature;BMP_pressure;BME280_temperature;BME280_humidity;BME280_pressure;Samples;Min_cycle;Max_cycle;Signal;HPM_P1;HPM_P2
2021/12/28 00:00:56;;;;;;;42.35;33.25;;;;;;;7.72;88.94;100649.13;4952730;28;20051;-87
2021/12/28 00:03:23;;;;;;;44.70;34.05;;;;;;;6.12;88.79;100375.22;4952419;28;20051;-87
2021/12/28 00:05:50;;;;;;;42.15;34.65;;;;;;;6.98;88.64;100506.78;4951183;29;20129;-85
2021/12/28 00:08:19;;;;;;;45.75;35.47;;;;;;;6.40;89.05;100405.63;4951454;29;20251;-85
2021/12/28 00:10:51;;;;;;;38.55;33.45;;;;;;;7.51;88.72;100587.34;4987519;28;20050;-85
2021/12/28 00:13:18;;;;;;;40.80;33.95;;;;;;;7.78;88.29;100619.56;4990451;28;20153;-87
2021/12/28 00:15:49;;;;;;;43.45;34.72;;;;;;;7.58;88.57;100594.66;4989890;28;20073;-85
2021/12/28 00:18:17;;;;;;;41.63;34.10;;;;;;;7.80;88.52;100622.09;5006397;28;20070;-86
2021/12/28 00:20:48;;;;;;;43.30;33.85;;;;;;;6.75;88.28;100441.72;4990053;28;20108;-87
2021/12/28 00:23:17;;;;;;;40.92;35.05;;;;;;;6.12;88.34;100357.59;4989749;28;20117;-85
2021/12/28 00:25:49;;;;;;;42.97;35.13;;;;;;;7.64;88.36;100604.75;4991561;28;20315;-87
2021/12/28 00:28:34;;;;;;;44.75;35.78;;;;;;;7.38;88.52;100561.88;4991337;28;20046;-84
2021/12/28 00:31:02;;;;;;;49.65;35.53;;;;;;;7.79;88.09;100626.56;4991409;28;20134;-84
2021/12/28 00:33:31;;;;;;;49.67;37.22;;;;;;;6.68;88.33;100435.22;4990145;28;20141;-85
2021/12/28 00:35:58;;;;;;;45.10;35.38;;;;;;;7.11;88.97;100501.41;4990077;28;20097;-86
2021/12/28 00:38:26;;;;;;;46.83;35.30;;;;;;;7.11;88.31;100508.50;5006266;28;20081;-89
2021/12/28 00:41:00;;;;;;;45.50;35.50;;;;;;;6.87;88.22;100477.75;5006246;28;20093;-85
2021/12/28 00:43:28;;;;;;;49.20;36.75;;;;;;;7.05;88.57;100499.25;4990069;28;20058;-85
2021/12/28 00:45:55;;;;;;;49.30;35.58;;;;;;;6.15;88.52;100349.44;5006250;28;20297;-88
2021/12/28 00:48:24;;;;;;;51.25;35.17;;;;;;;7.15;88.53;100513.44;5005464;28;20133;-87
2021/12/28 00:50:52;;;;;;;46.30;34.15;;;;;;;6.84;88.39;100462.13;5006369;28;20557;-89
2021/12/28 00:53:19;;;;;;;47.55;32.85;;;;;;;6.64;87.76;100430.16;5006044;28;20050;-86
2021/12/28 00:55:49;;;;;;;45.58;33.83;;;;;;;5.84;88.25;100302.59;4992506;28;20058;-89
2021/12/28 00:58:21;;;;;;;47.75;34.95;;;;;;;6.22;88.11;100375.38;4999633;28;20286;-88
2021/12/28 01:00:50;;;;;;;48.00;34.55;;;;;;;7.17;88.61;100531.81;5024467;28;20053;-88
2021/12/28 01:03:17;;;;;;;50.03;34.70;;;;;;;6.95;88.50;100485.06;5029924;28;20053;-92
2021/12/28 01:05:45;;;;;;;49.40;35.05;;;;;;;6.31;88.44;100385.22;5013521;28;20048;-88
2021/12/28 01:08:12;;;;;;;49.60;33.80;;;;;;;6.48;88.06;100407.69;4994968;28;20043;-92
2021/12/28 01:10:45;;;;;;;49.40;33.88;;;;;;;6.18;88.15;100341.31;4977111;28;20043;-84
2021/12/28 01:13:12;;;;;;;48.00;32.75;;;;;;;6.02;88.52;100327.63;4989633;28;20051;-87
2021/12/28 01:15:40;;;;;;;49.67;32.40;;;;;;;7.06;88.30;100496.50;4987156;28;20092;-89
2021/12/28 01:18:08;;;;;;;50.28;32.80;;;;;;;7.04;88.49;100506.31;4972498;28;20042;-85
2021/12/28 01:20:35;;;;;;;49.95;31.83;;;;;;;6.39;88.42;100407.44;4972016;28;20065;-86
2021/12/28 01:23:03;;;;;;;49.58;33.63;;;;;;;7.62;88.22;100606.69;4987917;28;20047;-86
2021/12/28 01:25:30;;;;;;;51.67;34.00;;;;;;;7.69;88.81;100617.63;4969312;28;20573;-85
2021/12/28 01:27:59;;;;;;;50.05;32.08;;;;;;;6.02;88.28;100355.75;4985757;28;20050;-85
2021/12/28 01:30:28;;;;;;;46.38;32.50;;;;;;;6.72;88.51;100478.88;4969388;28;20133;-88
2021/12/28 01:32:59;;;;;;;54.85;31.42;;;;;;;6.57;87.90;100459.75;4972091;28;20095;-85
2021/12/28 01:35:27;;;;;;;46.55;29.95;;;;;;;7.59;88.58;100632.50;4971013;28;20507;-85
2021/12/28 01:37:53;;;;;;;43.80;29.65;;;;;;;7.39;88.36;100613.72;4969017;28;20137;-85
2021/12/28 01:40:27;;;;;;;47.80;30.27;;;;;;;6.80;88.34;100518.72;4970041;28;20109;-84
2021/12/28 01:43:02;;;;;;;46.85;29.30;;;;;;;7.61;88.38;100641.16;4970196;28;20450;-84
2021/12/28 01:45:48;;;;;;;47.88;31.05;;;;;;;7.60;88.23;100655.34;4984911;28;20137;-88
2021/12/28 01:48:23;;;;;;;52.33;33.13;;;;;;;7.56;88.64;100638.03;4985025;28;20058;-85
2021/12/28 01:50:55;;;;;;;50.20;32.80;;;;;;;7.51;89.11;100640.16;4968971;28;20554;-84
2021/12/28 01:53:22;;;;;;;;;;;;;;;7.51;88.87;100650.75;4985360;28;20057;-84
2021/12/28 01:55:51;;;;;;;41.88;29.48;;;;;;;7.52;89.05;100666.44;4968572;28;20404;-85
2021/12/28 01:58:18;;;;;;;49.65;33.53;;;;;;;7.52;89.32;100665.63;4968557;28;20490;-84
2021/12/28 02:00:47;;;;;;;46.83;34.17;;;;;;;7.26;88.92;100618.25;4983950;28;20133;-87
2021/12/28 02:03:17;;;;;;;47.05;34.15;;;;;;;7.48;89.00;100657.94;4969563;28;20085;-84
2021/12/28 02:05:44;;;;;;;47.45;33.40;;;;;;;7.49;89.62;100658.75;4968337;28;20458;-84
2021/12/28 02:08:14;;;;;;;47.03;33.42;;;;;;;6.47;89.30;100495.69;4967084;28;20569;-85
2021/12/28 02:10:43;;;;;;;58.30;35.40;;;;;;;7.48;89.29;100660.56;5001708;28;20113;-88
2021/12/28 02:13:14;;;;;;;52.67;34.63;;;;;;;7.16;89.50;100599.59;4989243;28;20379;-88
2021/12/28 02:15:41;;;;;;;46.80;33.78;;;;;;;6.24;89.42;100460.44;4994410;28;20050;-87
2021/12/28 02:18:11;;;;;;;45.90;33.60;;;;;;;7.34;89.42;100642.28;5003910;28;20046;-84
2021/12/28 02:20:38;;;;;;;51.47;35.28;;;;;;;5.51;89.59;100346.22;5013331;28;20057;-90
2021/12/28 02:23:06;;;;;;;54.17;34.55;;;;;;;6.03;89.41;100433.88;5005281;28;20058;-85
2021/12/28 02:25:33;;;;;;;54.25;35.67;;;;;;;7.27;89.92;100648.97;4988704;28;20078;-85
2021/12/28 02:28:03;;;;;;;57.38;35.65;;;;;;;6.05;89.99;100451.25;5003999;28;20097;-89
2021/12/28 02:30:30;;;;;;;63.22;37.60;;;;;;;6.80;89.95;100560.94;4987468;28;20046;-86
2021/12/28 02:33:01;;;;;;;57.47;37.28;;;;;;;6.58;90.05;100525.59;5002962;28;20054;-87
2021/12/28 02:35:28;;;;;;;75.88;38.63;;;;;;;6.34;90.00;100496.56;5002925;28;20046;-88
2021/12/28 02:37:55;;;;;;;61.20;36.83;;;;;;;6.64;89.94;100551.50;4987753;28;20046;-86
2021/12/28 02:40:27;;;;;;;64.85;37.47;;;;;;;6.47;90.30;100522.88;5003480;28;20058;-89
2021/12/28 02:42:58;;;;;;;61.30;36.93;;;;;;;5.55;90.32;100368.75;4987782;28;20054;-85
2021/12/28 02:45:28;;;;;;;67.55;36.80;;;;;;;7.00;90.19;100591.97;5003390;28;20054;-85
2021/12/28 02:47:55;;;;;;;72.75;41.25;;;;;;;6.58;90.59;100512.41;4987063;28;20521;-85
2021/12/28 02:50:30;;;;;;;76.88;38.60;;;;;;;6.24;90.22;100457.78;4988791;28;20051;-85
2021/12/28 02:52:58;;;;;;;84.68;41.75;;;;;;;6.07;90.24;100419.47;4988184;28;20081;-86
2021/12/28 02:55:28;;;;;;;70.43;40.20;;;;;;;6.37;90.27;100480.53;5003749;28;20054;-85
2021/12/28 02:58:01;;;;;;;74.85;39.40;;;;;;;7.06;90.03;100599.44;5003746;28;20054;-85
2021/12/28 03:00:30;;;;;;;77.95;41.00;;;;;;;5.64;90.16;100369.91;4988051;28;20046;-86
2021/12/28 03:02:57;;;;;;;86.13;40.40;;;;;;;5.76;90.23;100387.44;4988063;28;20057;-88
2021/12/28 03:05:25;;;;;;;82.57;39.83;;;;;;;7.07;90.19;100601.13;5002728;28;20046;-84
2021/12/28 03:07:52;;;;;;;84.78;39.50;;;;;;;5.99;90.10;100422.69;4986932;28;20133;-84
2021/12/28 03:10:19;;;;;;;75.03;38.83;;;;;;;6.45;90.69;100493.13;4987005;28;20117;-87
2021/12/28 03:12:45;;;;;;;71.93;37.10;;;;;;;6.99;90.48;100584.16;4988002;28;20054;-85
2021/12/28 03:15:13;;;;;;;78.45;39.30;;;;;;;6.97;90.93;100567.63;4987830;28;20136;-86
2021/12/28 03:17:40;;;;;;;82.80;40.72;;;;;;;7.00;90.50;100573.50;4988462;28;20367;-86
2021/12/28 03:20:14;;;;;;;84.20;40.60;;;;;;;6.51;90.54;100482.16;5003262;28;20104;-85
2021/12/28 03:22:41;;;;;;;74.50;37.47;;;;;;;6.72;90.42;100505.25;4987688;28;20716;-87
2021/12/28 03:25:08;;;;;;;73.70;39.00;;;;;;;6.37;90.62;100458.59;4991248;28;20051;-87
2021/12/28 03:27:35;;;;;;;69.18;39.00;;;;;;;6.53;90.04;100490.81;5005655;28;20109;-86
2021/12/28 03:30:06;;;;;;;75.47;41.05;;;;;;;5.62;89.66;100330.50;4991234;28;20054;-85
2021/12/28 03:32:35;;;;;;;74.00;41.17;;;;;;;6.12;90.13;100412.94;4989960;28;20054;-85
2021/12/28 03:35:04;;;;;;;68.40;40.40;;;;;;;5.49;90.19;100316.53;4990449;28;20050;-85
2021/12/28 03:37:32;;;;;;;75.65;41.20;;;;;;;6.43;89.93;100463.41;5006809;28;20145;-87
2021/12/28 03:39:59;;;;;;;77.20;39.75;;;;;;;5.89;90.61;100363.69;4990017;28;20148;-87
2021/12/28 03:42:29;;;;;;;76.90;42.45;;;;;;;5.81;90.25;100355.50;4987402;28;20089;-86
2021/12/28 03:44:56;;;;;;;66.40;38.42;;;;;;;6.03;90.45;100392.53;4987818;28;20315;-84
2021/12/28 03:47:22;;;;;;;64.45;38.08;;;;;;;5.81;90.17;100358.13;5003843;28;20149;-86
2021/12/28 03:49:49;;;;;;;71.05;40.47;;;;;;;6.95;89.54;100536.06;4988032;28;20505;-87
2021/12/28 03:52:16;;;;;;;63.50;38.25;;;;;;;5.95;89.79;100373.81;5002577;28;20054;-86
2021/12/28 03:54:43;;;;;;;60.40;37.58;;;;;;;6.47;89.65;100442.94;5002290;28;20305;-86
2021/12/28 03:57:09;;;;;;;67.13;38.17;;;;;;;6.23;89.66;100398.97;5002856;28;20050;-85
2021/12/28 03:59:36;;;;;;;64.07;37.03;;;;;;;5.94;89.68;100361.56;4986513;28;20101;-87
2021/12/28 04:02:04;;;;;;;65.00;39.67;;;;;;;5.64;89.31;100320.69;4986333;28;20079;-88
2021/12/28 04:04:31;;;;;;;62.05;37.60;;;;;;;5.27;89.54;100256.72;5002331;28;20595;-86
2021/12/28 04:06:58;;;;;;;58.00;35.40;;;;;;;6.42;89.35;100467.84;4986525;28;20053;-86
2021/12/28 04:09:56;;;;;;;60.90;34.65;;;;;;;5.52;89.18;100314.50;4980087;28;20070;-87
2021/12/28 04:12:11;;;;;;;63.25;36.13;;;;;;;5.90;89.11;100360.09;4967941;28;20109;-87
2021/12/28 04:14:38;;;;;;;59.88;35.80;;;;;;;6.13;89.64;100396.16;4967226;28;20047;-88
2021/12/28 04:17:04;;;;;;;58.25;36.20;;;;;;;6.46;89.14;100459.69;4967302;28;20113;-86
2021/12/28 04:19:31;;;;;;;62.83;37.03;;;;;;;5.33;88.98;100288.66;4967255;28;20146;-88
2021/12/28 04:21:59;;;;;;;68.57;39.13;;;;;;;5.38;89.47;100290.97;4983154;28;20439;-86
2021/12/28 04:24:25;;;;;;;66.82;38.80;;;;;;;6.24;89.30;100468.34;4983171;28;20074;-88
2021/12/28 04:26:52;;;;;;;65.45;41.42;;;;;;;5.69;89.58;100359.88;4983043;28;20047;-88
2021/12/28 04:29:19;;;;;;;71.03;40.75;;;;;;;6.02;89.77;100422.47;4983289;28;20058;-87
2021/12/28 04:31:47;;;;;;;68.63;39.97;;;;;;;5.26;89.83;100316.38;4970350;28;20058;-86
2021/12/28 04:34:13;;;;;;;68.80;39.90;;;;;;;5.07;89.68;100294.97;4971418;28;20462;-88
2021/12/28 04:36:40;;;;;;;71.63;42.22;;;;;;;7.06;90.21;100612.66;4970697;28;20368;-86
2021/12/28 04:39:07;;;;;;;67.30;41.33;;;;;;;6.12;89.96;100481.47;4970529;28;20054;-88
2021/12/28 04:41:34;;;;;;;69.22;39.05;;;;;;;5.92;90.21;100443.34;4986772;28;20046;-86
2021/12/28 04:44:02;;;;;;;79.85;42.03;;;;;;;6.32;90.09;100516.09;4986523;28;20129;-88
2021/12/28 04:46:29;;;;;;;71.25;41.03;;;;;;;5.78;90.13;100440.88;4971702;28;20051;-87
2021/12/28 04:48:57;;;;;;;64.13;37.08;;;;;;;5.99;90.24;100464.84;4971550;28;20109;-87
2021/12/28 04:51:24;;;;;;;60.83;35.28;;;;;;;5.88;90.18;100455.06;4986210;28;20066;-86
2021/12/28 04:53:54;;;;;;;57.30;33.72;;;;;;;6.04;89.80;100485.59;4972083;28;20046;-86
2021/12/28 04:56:21;;;;;;;47.30;31.25;;;;;;;5.76;89.68;100448.88;4971791;28;20050;-87
2021/12/28 04:58:49;;;;;;;47.63;30.33;;;;;;;6.32;89.91;100518.72;4971142;28;20074;-89
2021/12/28 05:01:15;;;;;;;47.67;28.58;;;;;;;5.74;89.20;100419.16;4985987;28;20082;-87
2021/12/28 05:03:42;;;;;;;44.30;27.13;;;;;;;6.53;88.74;100545.31;4969764;28;20046;-87
2021/12/28 05:06:09;;;;;;;39.58;27.55;;;;;;;6.01;88.62;100454.22;4971169;28;20423;-87
2021/12/28 05:08:39;;;;;;;44.88;28.58;;;;;;;6.97;88.75;100599.28;4971657;28;20046;-87
2021/12/28 05:11:06;;;;;;;39.50;27.55;;;;;;;6.76;88.52;100564.75;4989413;28;20397;-87
2021/12/28 05:13:32;;;;;;;38.45;26.95;;;;;;;6.26;88.16;100483.09;5005620;28;20050;-87
2021/12/28 05:15:59;;;;;;;43.20;28.63;;;;;;;5.50;87.95;100348.00;4989362;28;20050;-88
2021/12/28 05:18:28;;;;;;;39.88;28.58;;;;;;;6.53;87.74;100511.03;4990579;28;20618;-86
2021/12/28 05:20:55;;;;;;;35.65;25.73;;;;;;;6.11;87.64;100456.06;5005527;28;20138;-87
2021/12/28 05:23:22;;;;;;;38.15;25.23;;;;;;;6.86;87.40;100571.03;4988684;28;20050;-87
2021/12/28 05:25:48;;;;;;;34.88;25.33;;;;;;;5.38;86.95;100343.63;4989109;28;20105;-85
2021/12/28 05:28:15;;;;;;;32.67;23.63;;;;;;;6.23;86.81;100482.50;5005189;28;20457;-89
2021/12/28 05:30:42;;;;;;;32.65;24.85;;;;;;;7.21;87.04;100646.78;5005498;28;20340;-88
2021/12/28 05:33:15;;;;;;;33.90;24.70;;;;;;;5.63;87.03;100376.97;4990196;28;20058;-88
2021/12/28 05:35:44;;;;;;;33.97;25.33;;;;;;;6.20;86.98;100484.38;4980837;28;20046;-86
2021/12/28 05:38:12;;;;;;;34.30;25.98;;;;;;;6.38;87.28;100505.09;4971088;28;20141;-87
2021/12/28 05:40:40;;;;;;;34.92;24.58;;;;;;;5.78;87.43;100404.81;4995021;28;20071;-87
2021/12/28 05:43:06;;;;;;;35.63;25.83;;;;;;;7.07;87.14;100622.25;4986839;28;20146;-88
2021/12/28 05:45:33;;;;;;;37.42;25.80;;;;;;;7.15;87.52;100645.44;4990295;28;20058;-87
2021/12/28 05:48:00;;;;;;;38.22;26.23;;;;;;;5.97;87.56;100456.22;4987367;28;20142;-86
2021/12/28 05:50:27;;;;;;;41.33;28.55;;;;;;;5.50;87.62;100363.81;4996937;28;20062;-85
2021/12/28 05:52:54;;;;;;;37.40;27.00;;;;;;;6.73;87.63;100571.09;4992195;28;20062;-86
2021/12/28 05:55:21;;;;;;;41.45;27.98;;;;;;;5.91;87.35;100435.56;4977159;28;20096;-88
2021/12/28 05:57:48;;;;;;;39.88;28.50;;;;;;;6.06;87.78;100455.53;4973636;28;20098;-87
2021/12/28 06:00:18;;;;;;;37.85;28.02;;;;;;;5.78;87.81;100409.25;4970235;28;20638;-87
2021/12/28 06:02:45;;;;;;;45.35;30.73;;;;;;;5.46;87.68;100350.97;4972305;28;20062;-86
2021/12/28 06:05:12;;;;;;;40.22;28.92;;;;;;;5.59;87.49;100372.84;4970655;28;20422;-86
2021/12/28 06:07:39;;;;;;;44.30;30.13;;;;;;;6.50;87.87;100512.09;4967930;28;20501;-87
2021/12/28 06:10:07;;;;;;;41.15;28.80;;;;;;;5.46;87.69;100322.88;4983917;28;20498;-86
2021/12/28 06:12:34;;;;;;;43.15;28.05;;;;;;;5.42;87.36;100312.69;4967892;28;20054;-86
2021/12/28 06:15:00;;;;;;;48.92;31.77;;;;;;;6.87;87.30;100551.63;4967972;28;20121;-87
2021/12/28 06:17:27;;;;;;;40.47;30.02;;;;;;;6.33;87.18;100454.50;4967605;28;20517;-89
2021/12/28 06:19:54;;;;;;;41.03;28.75;;;;;;;6.20;86.38;100439.56;4983347;28;20284;-87
2021/12/28 06:22:21;;;;;;;38.60;28.02;;;;;;;7.22;86.35;100630.81;4969298;28;20470;-86
2021/12/28 06:24:49;;;;;;;39.67;29.63;;;;;;;6.55;86.53;100517.91;4968802;28;20533;-87
2021/12/28 06:27:19;;;;;;;38.92;27.85;;;;;;;7.05;86.44;100587.19;4967501;28;20043;-87
2021/12/28 06:29:46;;;;;;;41.45;29.63;;;;;;;6.43;86.71;100481.84;4967190;28;20466;-89
2021/12/28 06:32:13;;;;;;;40.92;29.65;;;;;;;6.55;85.98;100510.00;4967242;28;20521;-87
2021/12/28 06:34:40;;;;;;;44.67;31.67;;;;;;;5.83;86.30;100390.50;4983100;28;20051;-88
2021/12/28 06:37:06;;;;;;;44.63;31.27;;;;;;;5.53;85.79;100353.09;4963519;28;20055;-87
2021/12/28 06:39:35;;;;;;;41.10;29.35;;;;;;;7.14;86.24;100605.97;4947885;29;20545;-88
2021/12/28 06:42:03;;;;;;;43.90;31.98;;;;;;;5.61;85.92;100339.34;4948939;28;20678;-87
2021/12/28 06:44:29;;;;;;;47.30;33.80;;;;;;;5.64;85.77;100319.84;4954352;28;20416;-88
2021/12/28 06:46:59;;;;;;;44.53;32.20;;;;;;;5.22;85.96;100254.41;4983277;28;20054;-87
2021/12/28 06:49:25;;;;;;;39.70;30.15;;;;;;;6.58;85.65;100478.13;4983366;28;20047;-87
2021/12/28 06:51:52;;;;;;;47.10;33.65;;;;;;;5.72;85.60;100341.19;4968548;28;20168;-86
2021/12/28 06:54:21;;;;;;;43.63;32.42;;;;;;;5.56;85.29;100341.50;4968198;28;20112;-87
2021/12/28 06:56:48;;;;;;;40.85;31.35;;;;;;;6.23;85.65;100456.97;4983319;28;20065;-86
2021/12/28 06:59:15;;;;;;;45.17;32.67;;;;;;;5.41;85.79;100311.81;4968056;28;20499;-86
2021/12/28 07:01:42;;;;;;;44.05;31.95;;;;;;;6.06;86.15;100418.66;4967058;28;20575;-87
2021/12/28 07:04:11;;;;;;;40.72;32.55;;;;;;;6.50;86.35;100501.56;4967984;28;20062;-86
2021/12/28 07:06:40;;;;;;;44.45;31.77;;;;;;;6.15;86.24;100454.88;4968430;28;20134;-86
2021/12/28 07:09:07;;;;;;;40.55;31.00;;;;;;;6.58;86.06;100541.41;4971532;28;20065;-87
2021/12/28 07:11:34;;;;;;;37.03;30.77;;;;;;;6.24;86.51;100489.44;4987316;28;20074;-86
2021/12/28 07:14:01;;;;;;;41.53;32.70;;;;;;;6.51;86.08;100528.78;4983209;28;20153;-87
2021/12/28 07:16:30;;;;;;;38.53;31.02;;;;;;;6.57;85.54;100531.81;4965644;28;20089;-88
2021/12/28 07:18:57;;;;;;;40.83;33.05;;;;;;;6.78;85.64;100570.78;4967986;28;20072;-87
2021/12/28 07:21:23;;;;;;;42.00;32.53;;;;;;;6.32;85.16;100480.03;4966448;28;20578;-86
2021/12/28 07:23:50;;;;;;;44.83;34.90;;;;;;;7.22;85.42;100640.53;4966498;28;20149;-86
2021/12/28 07:26:17;;;;;;;39.30;31.60;;;;;;;6.61;84.96;100546.47;4968265;28;20218;-87
2021/12/28 07:28:43;;;;;;;42.10;33.78;;;;;;;5.21;85.41;100320.31;4968982;28;20105;-87
2021/12/28 07:31:10;;;;;;;44.63;34.17;;;;;;;5.58;85.42;100373.78;4969176;28;20391;-86
2021/12/28 07:33:39;;;;;;;42.03;34.15;;;;;;;5.66;85.12;100395.16;4967874;28;20090;-88
2021/12/28 07:36:06;;;;;;;43.10;33.70;;;;;;;6.17;85.30;100463.53;4983352;28;20054;-87
2021/12/28 07:38:33;;;;;;;40.08;33.83;;;;;;;6.17;85.13;100474.06;4968195;28;20269;-86
2021/12/28 07:40:59;;;;;;;40.78;33.40;;;;;;;6.58;84.81;100533.50;4967022;28;20105;-87
2021/12/28 07:43:29;;;;;;;42.83;34.10;;;;;;;6.14;84.71;100463.75;4983642;28;20054;-87
2021/12/28 07:54:12;;;;;;;43.88;33.63;;;;;;;5.59;85.29;100351.78;4784245;29;20062;-87
2021/12/28 07:56:39;;;;;;;44.65;33.58;;;;;;;5.68;85.04;100369.56;4779070;30;20108;-87
2021/12/28 07:59:06;;;;;;;42.03;32.92;;;;;;;6.82;85.03;100556.38;4807679;29;20596;-87
2021/12/28 08:01:36;;;;;;;41.30;34.15;;;;;;;5.91;84.69;100409.22;4872554;29;20593;-87
2021/12/28 08:04:06;;;;;;;42.75;34.13;;;;;;;6.83;84.58;100558.06;4871803;29;20092;-87
2021/12/28 08:06:32;;;;;;;42.65;33.78;;;;;;;7.53;84.62;100677.88;4875423;29;20464;-88
2021/12/28 08:08:59;;;;;;;43.97;32.97;;;;;;;6.35;84.61;100471.88;4886288;29;20043;-87
2021/12/28 08:11:29;;;;;;;42.80;34.67;;;;;;;6.76;84.61;100538.38;4897272;29;20138;-88
2021/12/28 08:13:56;;;;;;;41.65;33.55;;;;;;;6.37;84.60;100475.25;4896987;29;20127;-86
2021/12/28 08:16:25;;;;;;;41.75;32.83;;;;;;;6.18;84.60;100452.03;4896448;29;20064;-87
2021/12/28 08:18:53;;;;;;;42.78;33.08;;;;;;;6.34;84.24;100464.09;4899263;29;20052;-88
2021/12/28 08:21:42;;;;;;;42.45;31.85;;;;;;;6.79;83.74;100548.69;4892827;29;20601;-86
2021/12/28 08:24:09;;;;;;;40.72;32.22;;;;;;;6.10;84.18;100435.94;4884371;28;20445;-86
2021/12/28 08:26:36;;;;;;;43.50;32.80;;;;;;;6.50;84.11;100506.00;4969792;28;20047;-87
2021/12/28 08:29:02;;;;;;;40.28;31.33;;;;;;;5.94;84.59;100401.09;4972551;28;20071;-86
2021/12/28 08:31:29;;;;;;;42.47;31.95;;;;;;;6.52;84.07;100509.38;4987039;28;20058;-86
2021/12/28 08:33:56;;;;;;;41.38;32.20;;;;;;;6.11;83.88;100442.03;4973052;28;20054;-87
2021/12/28 08:36:23;;;;;;;45.70;32.22;;;;;;;6.76;84.29;100543.66;4973111;28;20071;-86
2021/12/28 08:38:49;;;;;;;40.67;30.55;;;;;;;7.40;83.84;100644.47;4971310;28;20491;-86
2021/12/28 08:41:17;;;;;;;43.08;31.65;;;;;;;7.54;84.14;100661.91;4972130;28;20105;-87
2021/12/28 08:43:46;;;;;;;39.97;30.88;;;;;;;5.84;83.53;100376.34;4971084;28;20478;-87
2021/12/28 08:46:14;;;;;;;45.88;30.77;;;;;;;6.18;83.50;100433.56;4988071;28;20051;-86
2021/12/28 08:48:43;;;;;;;43.55;32.47;;;;;;;7.62;83.58;100671.88;4971296;28;20514;-87
2021/12/28 08:51:12;;;;;;;;;;;;;;;7.60;83.59;100665.91;4972069;28;20118;-88
2021/12/28 08:53:39;;;;;;;40.58;30.23;;;;;;;6.03;83.70;100403.06;4973405;28;19984;-85
2021/12/28 08:56:06;;;;;;;41.20;29.30;;;;;;;6.41;83.77;100466.16;4972963;28;20051;-87
2021/12/28 08:58:32;;;;;;;39.38;30.77;;;;;;;7.15;83.92;100575.94;4969785;28;20124;-87
2021/12/28 09:01:00;;;;;;;40.58;32.00;;;;;;;6.45;83.78;100465.94;4970939;28;20102;-87
2021/12/28 09:03:28;;;;;;;39.55;30.88;;;;;;;6.79;83.52;100546.06;4969020;28;20053;-88
2021/12/28 09:05:54;;;;;;;41.42;32.63;;;;;;;7.78;83.13;100712.06;4970365;28;20510;-86
2021/12/28 09:08:21;;;;;;;38.97;31.65;;;;;;;7.07;83.60;100595.84;4974275;28;20435;-88
2021/12/28 09:10:48;;;;;;;43.80;31.50;;;;;;;7.79;83.96;100712.91;4978784;28;20112;-89
2021/12/28 09:13:17;;;;;;;45.70;32.40;;;;;;;7.06;83.70;100598.59;4975415;28;20051;-86
2021/12/28 09:15:47;;;;;;;43.25;31.92;;;;;;;6.38;82.94;100486.63;4957792;28;20051;-88
2021/12/28 09:18:14;;;;;;;40.08;31.73;;;;;;;7.48;83.85;100673.78;4952974;29;20047;-87
2021/12/28 09:20:41;;;;;;;40.60;30.38;;;;;;;6.69;83.37;100542.41;4954400;29;20051;-87
2021/12/28 09:23:09;;;;;;;39.03;30.83;;;;;;;6.34;83.42;100493.09;4954528;28;20066;-88
2021/12/28 09:25:37;;;;;;;43.28;31.85;;;;;;;7.76;83.53;100710.50;4951630;28;20065;-86
2021/12/28 09:28:07;;;;;;;40.47;31.75;;;;;;;6.90;83.42;100563.75;4952336;29;20047;-87
2021/12/28 09:30:34;;;;;;;38.08;31.77;;;;;;;7.82;83.66;100707.41;4962527;28;20499;-87
2021/12/28 09:33:01;;;;;;;41.95;31.05;;;;;;;5.98;82.88;100399.94;4985679;28;20058;-86
2021/12/28 09:35:28;;;;;;;43.60;33.10;;;;;;;6.25;83.32;100427.84;4970278;28;20105;-86
2021/12/28 09:37:57;;;;;;;38.47;31.73;;;;;;;6.25;83.90;100431.34;4971023;28;20312;-86
2021/12/28 09:40:28;;;;;;;43.47;31.77;;;;;;;6.68;82.54;100519.63;4972056;28;20238;-85
2021/12/28 09:42:55;;;;;;;39.35;30.98;;;;;;;7.35;82.90;100633.38;4971063;28;20082;-89
2021/12/28 09:45:22;;;;;;;41.85;32.33;;;;;;;6.23;82.90;100445.59;4965532;28;20126;-85
2021/12/28 09:47:49;;;;;;;38.80;30.35;;;;;;;6.79;83.03;100538.97;4950693;28;20070;-86
2021/12/28 09:50:17;;;;;;;39.53;29.65;;;;;;;6.58;82.93;100503.66;4951935;28;20055;-88
2021/12/28 09:52:46;;;;;;;39.28;30.77;;;;;;;6.54;83.28;100479.28;4951833;28;20051;-87
2021/12/28 09:55:14;;;;;;;41.15;31.13;;;;;;;7.33;83.40;100611.56;4965101;28;20051;-87
2021/12/28 09:57:45;;;;;;;41.47;31.77;;;;;;;6.93;83.48;100523.94;4964753;28;20054;-88
2021/12/28 10:00:14;;;;;;;38.17;30.70;;;;;;;6.45;84.06;100445.69;4948822;29;20055;-87
2021/12/28 10:02:57;;;;;;;41.55;32.25;;;;;;;6.42;82.49;100419.53;4950502;28;20071;-86
2021/12/28 10:05:26;;;;;;;39.80;31.13;;;;;;;7.94;82.33;100643.03;4965398;28;20059;-86
2021/12/28 10:07:58;;;;;;;39.00;31.90;;;;;;;6.81;81.71;100443.88;4950490;28;20511;-86
2021/12/28 10:10:47;;;;;;;38.25;32.10;;;;;;;6.55;81.17;100409.78;4981616;28;20120;-86
2021/12/28 10:13:20;;;;;;;40.63;33.08;;;;;;;7.51;81.49;100553.00;5004106;28;20108;-87
2021/12/28 10:15:52;;;;;;;37.13;30.98;;;;;;;7.04;81.79;100479.09;5004553;28;20081;-86
2021/12/28 10:18:19;;;;;;;40.05;31.35;;;;;;;6.52;81.89;100378.31;4988490;28;20042;-85
2021/12/28 10:20:51;;;;;;;36.63;30.33;;;;;;;7.15;81.53;100471.19;4989258;28;20050;-86
2021/12/28 10:23:25;;;;;;;35.00;31.15;;;;;;;6.63;81.58;100375.72;4987571;28;20193;-87
2021/12/28 10:25:55;;;;;;;35.90;29.55;;;;;;;6.95;80.55;100412.00;4987495;28;20046;-86
2021/12/28 10:28:40;;;;;;;34.47;29.90;;;;;;;7.00;80.81;100420.41;4987597;28;20042;-86
2021/12/28 10:31:10;;;;;;;31.58;26.85;;;;;;;6.92;80.73;100380.59;4987889;28;20074;-87
2021/12/28 10:33:39;;;;;;;34.78;30.02;;;;;;;7.78;80.73;100513.84;5003982;28;20054;-86
2021/12/28 10:36:09;;;;;;;30.70;26.27;;;;;;;6.77;80.85;100355.34;5004695;28;20109;-88
2021/12/28 10:38:41;;;;;;;30.67;26.38;;;;;;;6.74;80.85;100339.78;4988196;28;20058;-86
2021/12/28 10:41:11;;;;;;;33.53;26.48;;;;;;;7.60;80.17;100478.31;4986656;28;20086;-86
2021/12/28 10:43:40;;;;;;;28.85;25.25;;;;;;;7.95;79.92;100522.25;4999150;28;20774;-87
2021/12/28 10:46:23;;;;;;;28.25;24.92;;;;;;;8.62;79.81;100621.88;4968740;28;20054;-83
2021/12/28 10:49:04;;;;;;;28.95;25.20;;;;;;;8.47;80.14;100586.88;4966355;28;20062;-86
2021/12/28 10:51:39;;;;;;;27.27;24.30;;;;;;;8.66;80.32;100616.19;4966592;28;20409;-85
2021/12/28 10:56:49;;;;;;;24.95;22.27;;;;;;;8.08;79.21;100528.25;4968800;28;20514;-85
2021/12/28 10:59:21;;;;;;;26.88;23.13;;;;;;;8.05;79.23;100481.75;4982899;28;20050;-86
2021/12/28 11:01:49;;;;;;;28.10;23.55;;;;;;;7.25;78.54;100376.25;4966474;28;20062;-86
2021/12/28 11:04:17;;;;;;;26.25;23.25;;;;;;;6.95;79.01;100321.44;4965696;28;20157;-86
2021/12/28 11:06:52;;;;;;;26.65;23.15;;;;;;;7.13;78.97;100350.81;4966615;28;20466;-86
2021/12/28 11:09:22;;;;;;;25.40;21.60;;;;;;;7.46;77.89;100416.81;4974882;28;20211;-86
2021/12/28 11:11:54;;;;;;;25.88;21.45;;;;;;;7.86;79.09;100494.75;4971957;28;20689;-87
2021/12/28 11:14:25;;;;;;;24.75;22.15;;;;;;;7.92;78.88;100487.16;4958291;28;20051;-87
2021/12/28 11:16:59;;;;;;;24.17;21.48;;;;;;;7.59;79.50;100405.28;4966852;28;20051;-87
2021/12/28 11:19:28;;;;;;;27.17;22.38;;;;;;;8.84;78.97;100607.75;4968492;28;20047;-86
2021/12/28 11:22:01;;;;;;;26.52;22.48;;;;;;;7.30;78.55;100362.69;4982736;28;20047;-88
2021/12/28 11:24:30;;;;;;;24.15;21.55;;;;;;;7.91;79.08;100469.66;4982322;28;20053;-87
2021/12/28 11:26:57;;;;;;;25.70;21.10;;;;;;;7.68;78.29;100421.25;4967261;28;20140;-87
2021/12/28 11:29:40;;;;;;;25.77;20.95;;;;;;;8.16;78.07;100515.25;4965948;28;20047;-86
2021/12/28 11:32:17;;;;;;;23.92;20.85;;;;;;;7.83;78.11;100442.97;4966132;28;20050;-87
2021/12/28 11:34:45;;;;;;;24.30;19.75;;;;;;;8.02;78.62;100482.00;4966753;28;20102;-88